Rosetown East, Canada
Current Conditions -  °F | °C
As of 11:00 AM on Friday 31 Oct 2014 (Local Time) from CYKY Reporting Station
Broken Clouds Broken Clouds  
Wind Chill: 32°   Ceiling: 26000
Heat Index: 41°   Visibility: 15mi
Dew Point: 34°   Wind: 17mph
Humidity: 76%   Direction: 160°SSE
Pressure: 29.76"   Gusts: 26mph
Location:  51.57°N, 107.92°W
Report Text: CYKY 311700Z 16015G23KT 15SM FEW060 SCT090 BKN260 05/01 A2976 RMK SC2AC2CI3 SLP102
Loading
Personal Weather Stations






























Interactive Weather Map
Tropical Storm Tracking
New forecast layout! Learn more

10-Day Weather Forecast

Advertisements
Track Severe Weather on mobile